createdAt,value
2023-03-01T00:01:19.145Z,90.07
2023-03-01T00:03:46.286Z,87.00
2023-03-01T00:06:13.497Z,92.03
2023-03-01T00:08:40.923Z,86.87
2023-03-01T00:11:15.767Z,85.60
2023-03-01T00:13:43.955Z,88.50
2023-03-01T00:16:34.654Z,86.80
2023-03-01T00:19:01.742Z,87.47
2023-03-01T00:21:28.803Z,79.47
2023-03-01T00:23:56.739Z,79.27
2023-03-01T00:26:24.837Z,78.53
2023-03-01T00:28:52.504Z,78.63
2023-03-01T00:31:22.316Z,79.93
2023-03-01T00:33:53.587Z,76.03
2023-03-01T00:36:21.011Z,74.13
2023-03-01T00:38:47.871Z,85.13
2023-03-01T00:41:17.507Z,77.97
2023-03-01T00:43:44.995Z,75.53
2023-03-01T00:46:14.991Z,70.37
2023-03-01T00:48:42.224Z,69.37
2023-03-01T00:51:14.535Z,75.00
2023-03-01T00:53:42.185Z,71.87
2023-03-01T00:56:11.186Z,74.13
2023-03-01T00:58:38.866Z,76.43
2023-03-01T01:01:20.389Z,67.57
2023-03-01T01:03:52.216Z,71.37
2023-03-01T01:06:25.412Z,66.77
2023-03-01T01:08:53.142Z,67.47
2023-03-01T01:11:21.194Z,68.67
2023-03-01T01:13:48.987Z,74.27
2023-03-01T01:16:17.695Z,68.90
2023-03-01T01:18:45.335Z,67.63
2023-03-01T01:21:14.908Z,69.37
2023-03-01T01:23:43.151Z,71.20
2023-03-01T01:26:16.162Z,69.23
2023-03-01T01:28:43.201Z,75.07
2023-03-01T01:31:10.218Z,68.80
2023-03-01T01:33:38.486Z,70.33
2023-03-01T01:36:07.350Z,71.20
2023-03-01T01:38:35.105Z,69.73
2023-03-01T01:41:01.956Z,68.77
2023-03-01T01:43:34.252Z,71.87
2023-03-01T01:46:14.200Z,67.60
2023-03-01T01:48:45.728Z,66.60
2023-03-01T01:51:20.850Z,64.20
2023-03-01T01:53:52.481Z,67.13
2023-03-01T01:56:21.303Z,68.73
2023-03-01T01:58:49.238Z,70.67
2023-03-01T02:01:16.124Z,73.57
2023-03-01T02:03:45.763Z,71.07
2023-03-01T02:06:30.180Z,69.57
2023-03-01T02:09:03.104Z,73.47
2023-03-01T02:11:34.492Z,66.93
2023-03-01T02:14:01.700Z,67.80
2023-03-01T02:16:30.306Z,67.87
2023-03-01T02:18:58.093Z,70.03
2023-03-01T02:21:44.628Z,64.83
2023-03-01T02:24:29.913Z,64.70
2023-03-01T02:27:02.374Z,70.03
2023-03-01T02:29:29.944Z,70.27
2023-03-01T02:32:00.720Z,67.37
2023-03-01T02:34:29.954Z,69.13
2023-03-01T02:37:13.586Z,68.90
2023-03-01T02:39:55.125Z,74.77
2023-03-01T02:42:27.786Z,71.93
2023-03-01T02:44:54.814Z,73.17
2023-03-01T02:47:21.720Z,66.03
2023-03-01T02:49:48.546Z,69.20
2023-03-01T02:52:21.366Z,71.33
2023-03-01T02:55:06.462Z,63.70
2023-03-01T02:57:36.178Z,67.63
2023-03-01T03:00:10.241Z,70.80
2023-03-01T03:02:37.654Z,70.27
2023-03-01T03:05:13.660Z,68.57
2023-03-01T03:07:44.534Z,67.60
2023-03-01T03:10:22.120Z,69.87
2023-03-01T03:13:03.676Z,72.87
2023-03-01T03:15:32.613Z,72.30
2023-03-01T03:18:00.120Z,69.87
2023-03-01T03:20:29.157Z,65.47
2023-03-01T03:22:57.868Z,63.57
2023-03-01T03:25:25.496Z,66.00
2023-03-01T03:27:59.688Z,69.60
2023-03-01T03:30:30.364Z,68.30
2023-03-01T03:33:00.882Z,66.53
2023-03-01T03:35:33.888Z,66.10
2023-03-01T03:38:05.030Z,76.03
2023-03-01T03:40:39.165Z,65.37
2023-03-01T03:43:08.568Z,68.50
2023-03-01T03:45:36.957Z,70.50
2023-03-01T03:48:06.748Z,64.10
2023-03-01T03:50:34.902Z,68.37
2023-03-01T03:53:02.625Z,69.83
2023-03-01T03:55:31.885Z,69.83
2023-03-01T03:58:03.026Z,66.63
2023-03-01T04:00:30.140Z,64.23
2023-03-01T04:02:57.581Z,69.77
2023-03-01T04:05:24.895Z,70.73
2023-03-01T04:08:02.001Z,70.73
2023-03-01T04:10:53.520Z,60.57
2023-03-01T04:13:23.307Z,63.90
2023-03-01T04:15:54.672Z,63.40
2023-03-01T04:18:24.369Z,62.67
2023-03-01T04:21:01.112Z,67.27
2023-03-01T04:23:28.510Z,70.57
2023-03-01T04:26:00.331Z,69.37
2023-03-01T04:28:36.938Z,65.93
2023-03-01T04:31:16.645Z,72.73
2023-03-01T04:33:48.008Z,63.23
2023-03-01T04:36:21.453Z,66.83
2023-03-01T04:38:49.756Z,67.93
2023-03-01T04:41:21.640Z,59.87
2023-03-01T04:43:49.602Z,71.50
2023-03-01T04:46:19.864Z,68.13
2023-03-01T04:48:48.197Z,61.90
2023-03-01T04:51:15.513Z,64.90
2023-03-01T04:53:43.122Z,68.23
2023-03-01T04:56:10.680Z,64.23
2023-03-01T04:58:38.145Z,61.77
2023-03-01T05:01:15.984Z,65.70
2023-03-01T05:03:48.325Z,63.37
2023-03-01T05:06:16.216Z,68.87
2023-03-01T05:08:43.983Z,62.27
2023-03-01T05:11:11.765Z,65.67
2023-03-01T05:13:39.717Z,60.70
2023-03-01T05:16:07.637Z,57.63
2023-03-01T05:18:35.090Z,62.10
2023-03-01T05:21:19.927Z,56.43
2023-03-01T05:23:47.875Z,52.47
2023-03-01T05:26:27.799Z,61.27
2023-03-01T05:28:59.826Z,60.13
2023-03-01T05:31:27.565Z,54.83
2023-03-01T05:33:54.493Z,58.27
2023-03-01T05:36:21.322Z,58.37
2023-03-01T05:38:48.218Z,60.43
2023-03-01T05:41:16.364Z,53.47
2023-03-01T05:43:45.967Z,53.00
2023-03-01T05:46:15.019Z,59.97
2023-03-01T05:48:42.093Z,58.13
2023-03-01T05:51:09.339Z,66.73
2023-03-01T05:53:36.472Z,55.60
2023-03-01T05:56:07.216Z,55.33
2023-03-01T05:58:34.083Z,59.70
2023-03-01T06:01:00.965Z,57.23
2023-03-01T06:03:27.807Z,56.30
2023-03-01T06:05:58.819Z,51.90
2023-03-01T06:08:27.796Z,51.47
2023-03-01T06:10:55.048Z,61.00
2023-03-01T06:13:22.000Z,57.93
2023-03-01T06:15:48.897Z,58.63
2023-03-01T06:18:15.984Z,63.77
2023-03-01T06:20:42.789Z,58.60
2023-03-01T06:23:10.715Z,59.37
2023-03-01T06:25:38.396Z,64.07
2023-03-01T06:28:05.582Z,60.13
2023-03-01T06:30:33.055Z,57.63
2023-03-01T06:33:02.432Z,55.10
2023-03-01T06:35:30.942Z,58.97
2023-03-01T06:37:58.962Z,56.57
2023-03-01T06:40:26.477Z,60.17
2023-03-01T06:42:53.358Z,58.87
2023-03-01T06:45:21.916Z,58.27
2023-03-01T06:47:48.970Z,58.83
2023-03-01T06:50:17.241Z,61.13
2023-03-01T06:55:13.920Z,60.20
2023-03-01T06:57:41.136Z,58.87
2023-03-01T07:00:09.166Z,59.87
2023-03-01T07:02:36.130Z,57.57
2023-03-01T07:05:09.649Z,55.43
2023-03-01T07:07:36.478Z,58.80
2023-03-01T07:10:03.601Z,57.10
2023-03-01T07:12:30.430Z,57.50
2023-03-01T07:14:57.325Z,57.00
2023-03-01T07:17:24.142Z,53.87
2023-03-01T07:19:50.934Z,55.20
2023-03-01T07:22:17.827Z,52.03
2023-03-01T07:24:44.876Z,54.47
2023-03-01T07:27:13.112Z,53.47
2023-03-01T07:29:39.981Z,58.97
2023-03-01T07:32:07.598Z,57.43
2023-03-01T07:34:34.414Z,57.87
2023-03-01T07:37:01.265Z,54.47
2023-03-01T07:39:28.240Z,54.43
2023-03-01T07:41:55.093Z,54.27
2023-03-01T07:44:22.067Z,52.93
2023-03-01T07:46:49.005Z,49.03
2023-03-01T07:49:15.769Z,49.87
2023-03-01T07:51:44.558Z,47.57
2023-03-01T07:54:11.320Z,47.73
2023-03-01T07:56:38.103Z,47.50
2023-03-01T07:59:04.867Z,49.40
2023-03-01T08:01:31.713Z,50.60
2023-03-01T08:03:58.545Z,48.57
2023-03-01T08:06:25.312Z,49.10
2023-03-01T08:08:52.118Z,46.10
2023-03-01T08:11:18.960Z,47.47
2023-03-01T08:13:51.347Z,45.40
2023-03-01T08:16:18.754Z,47.30
2023-03-01T08:18:45.608Z,46.80
2023-03-01T08:21:15.160Z,48.17
2023-03-01T08:23:42.419Z,44.07
2023-03-01T08:26:19.508Z,43.37
2023-03-01T08:28:47.216Z,45.57
2023-03-01T08:31:22.856Z,45.07
2023-03-01T08:33:56.007Z,42.43
2023-03-01T08:36:29.070Z,36.77
2023-03-01T08:38:56.554Z,31.90
2023-03-01T08:41:23.838Z,36.00
2023-03-01T08:43:50.826Z,36.93
2023-03-01T08:46:17.712Z,36.87
2023-03-01T08:48:44.616Z,39.20
2023-03-01T08:51:20.215Z,39.50
2023-03-01T08:53:47.914Z,37.10
2023-03-01T08:56:15.907Z,32.10
2023-03-01T08:58:46.372Z,33.80
2023-03-01T09:01:19.658Z,31.03
2023-03-01T09:03:47.457Z,29.80
2023-03-01T09:06:15.058Z,28.23
2023-03-01T09:08:44.320Z,31.90
2023-03-01T09:11:13.451Z,28.30
2023-03-01T09:13:42.382Z,31.40
2023-03-01T09:16:13.139Z,32.33
2023-03-01T09:18:40.517Z,31.90
2023-03-01T09:21:11.800Z,29.10
2023-03-01T09:23:41.771Z,32.40
2023-03-01T09:26:10.219Z,29.80
2023-03-01T09:28:38.009Z,27.37
2023-03-01T09:31:05.577Z,32.40
2023-03-01T09:33:33.719Z,31.73
2023-03-01T09:36:03.362Z,31.77
2023-03-01T09:38:30.605Z,30.30
2023-03-01T09:40:58.172Z,30.57
2023-03-01T09:43:31.767Z,28.73
2023-03-01T09:46:12.460Z,35.80
2023-03-01T09:49:04.082Z,30.63
2023-03-01T09:51:36.761Z,26.67
2023-03-01T09:54:05.723Z,29.83
2023-03-01T09:56:59.161Z,32.80
2023-03-01T09:59:50.929Z,29.97
2023-03-01T10:02:23.644Z,29.70
2023-03-01T10:04:53.774Z,28.83
2023-03-01T10:07:39.516Z,28.50
2023-03-01T10:10:09.364Z,25.17
2023-03-01T10:12:41.237Z,26.60
2023-03-01T10:15:13.514Z,27.00
2023-03-01T10:17:57.406Z,27.37
2023-03-01T10:20:27.407Z,25.57
2023-03-01T10:22:56.261Z,26.23
2023-03-01T10:25:50.333Z,24.73
2023-03-01T10:28:31.956Z,24.40
2023-03-01T10:31:00.223Z,24.37
2023-03-01T10:33:36.732Z,24.57
2023-03-01T10:36:03.972Z,25.13
2023-03-01T10:38:47.649Z,28.73
2023-03-01T10:41:14.416Z,21.83
2023-03-01T10:43:59.073Z,23.43
2023-03-01T10:46:32.282Z,23.77
2023-03-01T10:49:22.791Z,25.77
2023-03-01T10:51:52.212Z,29.67
2023-03-01T10:54:29.942Z,29.47
2023-03-01T10:57:03.043Z,26.67
2023-03-01T10:59:34.542Z,27.73
2023-03-01T11:02:23.533Z,26.90
2023-03-01T11:05:24.971Z,22.27
2023-03-01T11:08:01.367Z,25.50
2023-03-01T11:10:31.077Z,23.30
2023-03-01T11:13:30.610Z,25.50
2023-03-01T11:16:15.610Z,24.37
2023-03-01T11:18:48.173Z,28.43
2023-03-01T11:21:17.101Z,22.70
2023-03-01T11:23:46.176Z,23.93
2023-03-01T11:26:16.052Z,22.30
2023-03-01T11:28:49.315Z,18.07
2023-03-01T11:31:17.944Z,18.07
2023-03-01T11:33:54.501Z,21.17
2023-03-01T11:36:32.732Z,18.60
2023-03-01T11:39:22.708Z,17.97
2023-03-01T11:42:18.085Z,18.10
2023-03-01T11:44:50.792Z,17.43
2023-03-01T11:47:29.382Z,20.73
2023-03-01T11:50:05.079Z,17.87
2023-03-01T11:52:50.900Z,20.33
2023-03-01T11:55:17.700Z,16.03
2023-03-01T11:58:12.284Z,17.63
2023-03-01T12:01:15.987Z,15.97
2023-03-01T12:03:57.323Z,19.00
2023-03-01T12:06:50.647Z,16.90
2023-03-01T12:09:26.368Z,16.40
2023-03-01T12:11:56.178Z,18.67
2023-03-01T12:14:39.209Z,16.50
2023-03-01T12:17:29.096Z,18.53
2023-03-01T12:20:29.049Z,15.70
2023-03-01T12:23:24.019Z,15.67
2023-03-01T12:26:14.482Z,15.83
2023-03-01T12:29:19.425Z,17.03
2023-03-01T12:32:25.082Z,16.53
2023-03-01T12:35:32.727Z,17.70
2023-03-01T12:38:17.928Z,15.03
2023-03-01T12:40:54.246Z,14.87
2023-03-01T12:43:44.804Z,15.30
2023-03-01T12:46:19.656Z,14.50
2023-03-01T12:48:57.038Z,17.97
2023-03-01T12:51:31.121Z,16.10
2023-03-01T12:54:02.400Z,13.33
2023-03-01T12:56:33.341Z,19.20
2023-03-01T12:59:18.659Z,16.60
2023-03-01T13:02:21.596Z,19.03
2023-03-01T13:05:01.103Z,16.47
2023-03-01T13:07:39.708Z,16.93
2023-03-01T13:10:22.993Z,16.67
2023-03-01T13:12:58.020Z,20.90
2023-03-01T13:15:24.912Z,17.00
2023-03-01T13:17:53.360Z,17.03
2023-03-01T13:20:22.747Z,19.37
2023-03-01T13:23:02.453Z,15.63
2023-03-01T13:25:34.672Z,16.47
2023-03-01T13:28:45.310Z,18.37
2023-03-01T13:31:32.281Z,19.57
2023-03-01T13:34:00.395Z,14.27
2023-03-01T13:36:30.647Z,16.73
2023-03-01T13:39:04.626Z,17.60
2023-03-01T13:41:40.624Z,16.47
2023-03-01T13:44:31.088Z,16.77
2023-03-01T13:47:14.064Z,17.33
2023-03-01T13:49:51.644Z,19.80
2023-03-01T13:52:37.906Z,17.83
2023-03-01T13:55:27.284Z,16.13
2023-03-01T13:58:00.124Z,21.40
2023-03-01T14:00:33.490Z,17.80
2023-03-01T14:03:20.440Z,20.30
2023-03-01T14:06:14.269Z,16.43
2023-03-01T14:08:43.899Z,17.37
2023-03-01T14:11:34.867Z,18.37
2023-03-01T14:14:20.336Z,18.03
2023-03-01T14:16:58.783Z,20.33
2023-03-01T14:19:33.510Z,18.43
2023-03-01T14:22:20.419Z,18.37
2023-03-01T14:24:55.311Z,21.60
2023-03-01T14:27:24.360Z,23.23
2023-03-01T14:30:00.936Z,20.30
2023-03-01T14:32:33.589Z,21.23
2023-03-01T14:35:01.717Z,20.33
2023-03-01T14:37:32.333Z,19.50
2023-03-01T14:40:00.892Z,18.87
2023-03-01T14:42:32.881Z,22.23
2023-03-01T14:45:05.490Z,22.77
2023-03-01T14:47:34.644Z,18.43
2023-03-01T14:50:35.120Z,19.77
2023-03-01T14:53:08.049Z,24.47
2023-03-01T14:55:45.762Z,21.47
2023-03-01T14:58:19.253Z,20.80
2023-03-01T15:01:02.267Z,24.83
2023-03-01T15:03:32.632Z,21.73
2023-03-01T15:06:02.161Z,22.53
2023-03-01T15:08:34.140Z,23.87
2023-03-01T15:11:23.903Z,26.87
2023-03-01T15:13:51.047Z,24.50
2023-03-01T15:16:23.989Z,27.70
2023-03-01T15:18:56.553Z,28.60
2023-03-01T15:21:32.434Z,28.00
2023-03-01T15:24:03.738Z,25.57
2023-03-01T15:26:36.202Z,27.40
2023-03-01T15:29:04.761Z,25.10
2023-03-01T15:31:40.114Z,26.93
2023-03-01T15:34:35.165Z,26.10
2023-03-01T15:37:06.681Z,27.43
2023-03-01T15:39:44.678Z,26.47
2023-03-01T15:42:34.345Z,26.37
2023-03-01T15:45:17.009Z,26.83
2023-03-01T15:47:51.094Z,23.50
2023-03-01T15:50:30.508Z,24.53
2023-03-01T15:52:59.378Z,25.07
2023-03-01T15:55:31.528Z,25.00
2023-03-01T15:58:11.400Z,23.13
2023-03-01T16:00:42.235Z,26.30
2023-03-01T16:03:13.006Z,26.50
2023-03-01T16:05:40.019Z,25.23
2023-03-01T16:08:07.932Z,31.33
2023-03-01T16:10:35.105Z,25.53
2023-03-01T16:13:01.894Z,27.07
2023-03-01T16:15:35.414Z,28.57
2023-03-01T16:18:02.734Z,27.97
2023-03-01T16:20:33.433Z,24.83
2023-03-01T16:23:02.263Z,24.43
2023-03-01T16:25:30.121Z,25.57
2023-03-01T16:27:59.388Z,25.07
2023-03-01T16:30:26.395Z,25.73
2023-03-01T16:32:54.132Z,22.97
2023-03-01T16:35:22.792Z,22.17
2023-03-01T16:37:50.223Z,25.77
2023-03-01T16:40:20.178Z,28.47
2023-03-01T16:42:47.456Z,24.47
2023-03-01T16:45:23.789Z,24.83
2023-03-01T16:47:54.441Z,27.33
2023-03-01T16:50:23.019Z,28.53
2023-03-01T16:52:49.898Z,31.13
2023-03-01T16:55:16.855Z,27.30
2023-03-01T16:57:43.710Z,25.00
2023-03-01T17:00:13.988Z,27.37
2023-03-01T17:02:42.379Z,29.63
2023-03-01T17:05:11.116Z,26.90
2023-03-01T17:07:38.380Z,27.93
2023-03-01T17:10:08.963Z,27.93
2023-03-01T17:12:36.166Z,27.63
2023-03-01T17:15:04.396Z,28.53
2023-03-01T17:17:31.753Z,26.37
2023-03-01T17:19:59.586Z,30.33
2023-03-01T17:22:26.669Z,29.00
2023-03-01T17:24:53.671Z,28.20
2023-03-01T17:27:20.538Z,31.63
2023-03-01T17:29:48.791Z,29.93
2023-03-01T17:32:18.902Z,31.70
2023-03-01T17:34:46.828Z,31.23
2023-03-01T17:37:21.135Z,34.03
2023-03-01T17:42:54.680Z,33.27
2023-03-01T17:45:25.083Z,40.77
2023-03-01T17:47:52.042Z,33.77
2023-03-01T17:50:19.050Z,38.13
2023-03-01T17:52:46.009Z,38.00
2023-03-01T17:55:15.746Z,35.17
2023-03-01T17:57:42.873Z,31.07
2023-03-01T18:00:15.053Z,31.27
2023-03-01T18:02:43.061Z,35.70
2023-03-01T18:05:10.827Z,36.23
2023-03-01T18:07:38.174Z,34.87
2023-03-01T18:10:05.586Z,37.77
2023-03-01T18:12:32.773Z,37.47
2023-03-01T18:14:59.637Z,39.13
2023-03-01T18:17:26.940Z,41.50
2023-03-01T18:19:56.208Z,35.03
2023-03-01T18:22:29.490Z,41.07
2023-03-01T18:24:56.475Z,42.63
2023-03-01T18:27:23.375Z,45.38
2023-03-01T18:29:50.357Z,41.33
2023-03-01T18:32:17.958Z,46.03
2023-03-01T18:34:45.471Z,39.07
2023-03-01T18:37:12.483Z,41.13
2023-03-01T18:39:41.834Z,40.90
2023-03-01T18:42:15.237Z,42.83
2023-03-01T18:44:42.300Z,39.93
2023-03-01T18:47:09.318Z,46.20
2023-03-01T18:49:36.474Z,42.23
2023-03-01T18:52:04.234Z,42.63
2023-03-01T18:54:31.200Z,43.27
2023-03-01T18:56:58.129Z,44.97
2023-03-01T18:59:25.160Z,43.10
2023-03-01T19:01:55.067Z,44.60
2023-03-01T19:04:21.940Z,41.37
2023-03-01T19:06:51.875Z,40.17
2023-03-01T19:09:18.820Z,45.40
2023-03-01T19:11:45.685Z,43.53
2023-03-01T19:14:12.572Z,44.63
2023-03-01T19:16:40.486Z,43.20
2023-03-01T19:19:10.198Z,43.80
2023-03-01T19:21:38.065Z,41.10
2023-03-01T19:24:05.555Z,45.03
2023-03-01T19:26:33.759Z,45.13
2023-03-01T19:31:57.845Z,42.57
2023-03-01T19:34:25.556Z,46.77
2023-03-01T19:36:52.562Z,44.40
2023-03-01T19:39:19.481Z,44.20
2023-03-01T19:41:48.884Z,41.37
2023-03-01T19:44:47.599Z,43.23
2023-03-01T19:47:14.050Z,50.83
2023-03-01T19:49:42.540Z,47.87
2023-03-01T19:52:10.096Z,47.43
2023-03-01T19:54:37.094Z,50.67
2023-03-01T19:57:04.869Z,46.57
2023-03-01T19:59:40.481Z,49.17
2023-03-01T20:02:08.193Z,48.60
2023-03-01T20:04:35.370Z,51.73
2023-03-01T20:07:02.229Z,49.97
2023-03-01T20:09:29.598Z,52.47
2023-03-01T20:11:56.718Z,54.73
2023-03-01T20:14:24.320Z,53.03
2023-03-01T20:16:51.726Z,52.50
2023-03-01T20:19:34.094Z,55.07
2023-03-01T20:22:01.223Z,53.40
2023-03-01T20:24:28.184Z,56.77
2023-03-01T20:29:45.990Z,58.23
2023-03-01T20:32:12.992Z,58.80
2023-03-01T20:34:40.482Z,61.90
2023-03-01T20:37:18.512Z,61.33
2023-03-01T20:39:45.387Z,62.67
2023-03-01T20:42:12.581Z,67.00
2023-03-01T20:44:44.349Z,59.37
2023-03-01T20:47:11.573Z,62.07
2023-03-01T20:49:49.594Z,72.47
2023-03-01T20:52:16.631Z,63.27
2023-03-01T20:55:19.170Z,66.80
2023-03-01T21:01:10.556Z,71.60
2023-03-01T21:03:56.252Z,67.23
2023-03-01T21:06:33.549Z,63.13
2023-03-01T21:24:15.106Z,71.00
2023-03-01T21:26:43.108Z,77.30
2023-03-01T21:29:24.045Z,74.70
2023-03-01T21:31:54.197Z,72.20
2023-03-01T21:34:25.776Z,74.53
2023-03-01T21:37:35.733Z,72.93
2023-03-01T21:40:18.396Z,75.43
2023-03-01T21:42:45.981Z,78.27
2023-03-01T21:46:41.697Z,76.93
2023-03-01T21:49:21.867Z,75.43
2023-03-01T21:52:04.821Z,71.43
2023-03-01T21:54:32.675Z,77.07
2023-03-01T21:57:10.605Z,74.53
2023-03-01T21:59:39.090Z,70.37
2023-03-01T22:02:06.178Z,68.17
2023-03-01T22:04:33.066Z,77.13
2023-03-01T22:07:00.487Z,74.30
2023-03-01T22:09:27.955Z,74.10
2023-03-01T22:12:02.550Z,78.03
2023-03-01T22:14:31.383Z,75.87
2023-03-01T22:16:59.067Z,78.63
2023-03-01T22:19:27.062Z,81.77
2023-03-01T22:21:54.129Z,74.13
2023-03-01T22:24:24.295Z,74.50
2023-03-01T22:27:03.563Z,76.17
2023-03-01T22:29:30.537Z,73.80
2023-03-01T22:32:05.241Z,76.17
2023-03-01T22:34:34.777Z,75.83
2023-03-01T22:44:25.597Z,69.47
2023-03-01T22:46:52.963Z,76.07
2023-03-01T22:49:21.939Z,76.03
2023-03-01T22:51:49.398Z,77.20
2023-03-01T22:54:18.077Z,73.10
2023-03-01T22:56:45.349Z,77.10
2023-03-01T23:05:11.631Z,77.20
2023-03-01T23:07:38.650Z,79.33
2023-03-01T23:10:07.201Z,73.17
2023-03-01T23:12:34.236Z,72.17
2023-03-01T23:15:01.141Z,76.30
2023-03-01T23:17:27.957Z,78.10
2023-03-01T23:19:54.836Z,82.27
2023-03-01T23:22:21.746Z,83.10
2023-03-01T23:24:52.805Z,81.97
2023-03-01T23:27:20.004Z,83.17
2023-03-01T23:29:46.959Z,74.70
2023-03-01T23:32:14.842Z,76.60
2023-03-01T23:34:43.836Z,77.60
2023-03-01T23:37:10.825Z,75.87
2023-03-01T23:39:39.152Z,80.67
2023-03-01T23:42:08.407Z,79.60
2023-03-01T23:44:35.689Z,78.07
2023-03-01T23:47:03.494Z,74.20
2023-03-01T23:49:30.412Z,77.43
2023-03-01T23:52:03.673Z,76.17
2023-03-01T23:54:30.648Z,79.30
2023-03-01T23:56:57.733Z,77.87
2023-03-01T23:59:24.726Z,75.00
